Time;durP1;ratioP1;P1;durP2;ratioP2;P2;SDS_P1;SDS_P2;PMS_P1;PMS_P2;Temp;Humidity;BMP_temperature;BMP_pressure;BME280_temperature;BME280_humidity;BME280_pressure;Samples;Min_cycle;Max_cycle;Signal;HPM_P1;HPM_P2
2022/12/17 13:06:45;;;;;;;50.03;28.77;;;;;;;;;;5041992;28;20242;-58
2022/12/17 13:09:24;;;;;;;52.90;30.73;;;;;;;;;;5042061;28;20233;-57
2022/12/17 13:11:54;;;;;;;52.20;30.65;;;;;;;;;;5042078;28;20396;-57
2022/12/17 13:14:24;;;;;;;53.00;29.70;;;;;;;;;;5041967;28;20393;-58
2022/12/17 13:16:52;;;;;;;52.58;31.15;;;;;;;;;;5041724;28;20205;-58
2022/12/17 13:19:21;;;;;;;51.92;28.80;;;;;;;;;;5041863;28;20190;-57
2022/12/17 13:21:47;;;;;;;49.97;29.92;;;;;;;;;;5041890;28;20413;-57
2022/12/17 13:24:22;;;;;;;53.70;30.88;;;;;;;;;;5041915;28;20194;-59
2022/12/17 13:26:48;;;;;;;50.40;29.20;;;;;;;;;;5041749;28;20269;-58
2022/12/17 13:29:21;;;;;;;54.50;30.13;;;;;;;;;;5041349;28;20224;-59
2022/12/17 13:31:55;;;;;;;60.63;31.75;;;;;;;;;;5041827;27;20197;-58
2022/12/17 13:34:26;;;;;;;60.30;30.85;;;;;;;;;;5041873;28;20226;-59
2022/12/17 13:36:56;;;;;;;54.90;30.77;;;;;;;;;;5041846;28;20205;-59
2022/12/17 13:39:31;;;;;;;50.70;30.42;;;;;;;;;;5041434;28;20589;-58
2022/12/17 13:41:57;;;;;;;51.35;29.83;;;;;;;;;;5041342;28;20539;-59
2022/12/17 13:44:24;;;;;;;55.22;30.92;;;;;;;;;;5041727;28;20194;-58
2022/12/17 13:46:51;;;;;;;48.10;29.45;;;;;;;;;;5041001;28;20204;-58
2022/12/17 13:49:19;;;;;;;56.67;30.65;;;;;;;;;;5041201;28;20198;-58
2022/12/17 13:51:46;;;;;;;52.67;29.60;;;;;;;;;;5041299;28;20198;-59
2022/12/17 13:54:15;;;;;;;55.03;31.95;;;;;;;;;;5041147;28;20432;-59
2022/12/17 13:56:42;;;;;;;56.15;31.15;;;;;;;;;;5041655;28;20206;-59
2022/12/17 13:59:16;;;;;;;70.80;37.05;;;;;;;;;;5041230;28;20205;-58
2022/12/17 14:01:45;;;;;;;57.38;32.72;;;;;;;;;;5041581;28;20201;-59
2022/12/17 14:04:20;;;;;;;57.45;32.33;;;;;;;;;;5041194;28;20374;-58
2022/12/17 14:06:46;;;;;;;56.42;31.50;;;;;;;;;;5041241;28;20288;-59
2022/12/17 14:09:14;;;;;;;59.83;33.15;;;;;;;;;;5040928;28;20198;-58
2022/12/17 14:14:31;;;;;;;55.20;31.02;;;;;;;;;;5040962;28;20228;-59
2022/12/17 14:16:57;;;;;;;61.78;32.83;;;;;;;;;;5041379;28;20528;-58
2022/12/17 14:19:25;;;;;;;55.03;32.33;;;;;;;;;;5040513;28;20435;-59
2022/12/17 14:21:52;;;;;;;55.67;31.65;;;;;;;;;;5040812;28;20244;-59
2022/12/17 14:24:22;;;;;;;57.55;32.25;;;;;;;;;;5040776;28;20194;-58
2022/12/17 14:26:49;;;;;;;58.75;31.73;;;;;;;;;;5040721;28;20197;-58
2022/12/17 14:29:15;;;;;;;61.15;33.20;;;;;;;;;;5040633;28;20226;-58
2022/12/17 14:31:51;;;;;;;56.20;32.63;;;;;;;;;;5040763;28;20202;-57
2022/12/17 14:34:17;;;;;;;60.42;34.72;;;;;;;;;;5040741;28;20296;-58
2022/12/17 14:36:45;;;;;;;62.13;34.80;;;;;;;;;;5040679;28;20202;-58
2022/12/17 14:39:17;;;;;;;67.45;36.38;;;;;;;;;;5040454;28;20205;-58
2022/12/17 14:44:28;;;;;;;61.40;35.78;;;;;;;;;;5040297;28;20419;-58
2022/12/17 14:47:06;;;;;;;69.53;34.97;;;;;;;;;;5040517;28;20204;-59
2022/12/17 14:49:32;;;;;;;62.53;35.40;;;;;;;;;;5040466;28;20205;-59
2022/12/17 14:52:00;;;;;;;60.63;34.30;;;;;;;;;;5040678;28;20501;-59
2022/12/17 14:54:29;;;;;;;71.03;38.30;;;;;;;;;;5040372;28;20585;-57
2022/12/17 14:56:56;;;;;;;66.18;36.63;;;;;;;;;;5040253;28;20497;-59
2022/12/17 14:59:24;;;;;;;70.32;37.17;;;;;;;;;;5039309;28;20389;-59
2022/12/17 15:01:50;;;;;;;61.63;34.80;;;;;;;;;;5040510;28;20226;-58
2022/12/17 15:04:17;;;;;;;61.67;33.95;;;;;;;;;;5040281;28;20194;-59
2022/12/17 15:06:43;;;;;;;65.10;38.65;;;;;;;;;;5040210;28;20201;-59
2022/12/17 15:09:11;;;;;;;65.97;37.70;;;;;;;;;;5040198;28;20198;-58
2022/12/17 15:11:37;;;;;;;70.07;38.35;;;;;;;;;;5040478;28;20209;-59
2022/12/17 15:14:04;;;;;;;61.17;35.60;;;;;;;;;;5040296;28;20404;-58
2022/12/17 15:16:30;;;;;;;62.22;35.17;;;;;;;;;;5040185;27;20505;-58
2022/12/17 15:18:57;;;;;;;66.80;37.28;;;;;;;;;;5039973;28;20198;-59
2022/12/17 15:21:23;;;;;;;66.00;36.65;;;;;;;;;;5040057;28;20229;-58
2022/12/17 15:23:50;;;;;;;59.72;36.20;;;;;;;;;;5039877;28;20524;-58
2022/12/17 15:26:18;;;;;;;67.78;36.28;;;;;;;;;;5040124;28;20384;-58
2022/12/17 15:28:45;;;;;;;67.32;36.95;;;;;;;;;;5039693;28;20224;-58
2022/12/17 15:31:12;;;;;;;78.07;39.95;;;;;;;;;;5040053;28;20197;-59
2022/12/17 15:33:38;;;;;;;94.00;46.10;;;;;;;;;;5039571;28;20567;-58
2022/12/17 15:36:05;;;;;;;73.85;39.45;;;;;;;;;;5039693;28;20198;-59
2022/12/17 15:38:31;;;;;;;78.25;38.55;;;;;;;;;;5039474;27;20198;-58
2022/12/17 15:40:59;;;;;;;71.07;36.13;;;;;;;;;;5039772;28;20198;-56
2022/12/17 15:43:25;;;;;;;75.57;38.38;;;;;;;;;;5039877;28;20497;-59
2022/12/17 15:45:52;;;;;;;71.45;38.47;;;;;;;;;;5039709;28;20397;-57
2022/12/17 15:48:19;;;;;;;78.75;44.25;;;;;;;;;;5038768;28;20433;-67
2022/12/17 15:50:45;;;;;;;68.65;37.15;;;;;;;;;;5039669;28;20209;-67
2022/12/17 15:53:12;;;;;;;67.07;35.03;;;;;;;;;;5039481;28;20202;-67
2022/12/17 15:55:38;;;;;;;70.35;36.13;;;;;;;;;;5039740;28;20291;-67
2022/12/17 15:58:05;;;;;;;72.43;36.83;;;;;;;;;;5039597;28;20396;-67
2022/12/17 16:00:32;;;;;;;79.88;39.83;;;;;;;;;;5039647;28;20202;-67
2022/12/17 16:02:59;;;;;;;79.30;40.28;;;;;;;;;;5039615;28;20205;-67
2022/12/17 16:05:25;;;;;;;82.55;40.63;;;;;;;;;;5039485;28;20201;-67
2022/12/17 16:07:51;;;;;;;79.85;39.70;;;;;;;;;;5039446;28;20198;-67
2022/12/17 16:10:18;;;;;;;85.97;41.25;;;;;;;;;;5039342;28;20204;-67
2022/12/17 16:12:44;;;;;;;82.65;40.63;;;;;;;;;;5039602;28;20202;-67
2022/12/17 16:15:11;;;;;;;79.43;38.88;;;;;;;;;;5039430;28;20224;-67
2022/12/17 16:17:39;;;;;;;81.53;37.55;;;;;;;;;;5039382;28;20208;-70
2022/12/17 16:20:06;;;;;;;74.55;36.28;;;;;;;;;;5039528;28;20209;-67
2022/12/17 16:22:32;;;;;;;80.53;37.65;;;;;;;;;;5039702;28;20191;-67
2022/12/17 16:24:58;;;;;;;80.57;36.85;;;;;;;;;;5039464;28;20194;-67
2022/12/17 16:27:25;;;;;;;72.57;35.03;;;;;;;;;;5039432;28;20225;-67
2022/12/17 16:29:51;;;;;;;70.10;34.42;;;;;;;;;;5039103;28;20204;-67
2022/12/17 16:32:17;;;;;;;76.30;36.47;;;;;;;;;;5039525;28;20497;-67
2022/12/17 16:34:45;;;;;;;62.65;32.88;;;;;;;;;;5039107;28;20230;-67
2022/12/17 16:37:12;;;;;;;67.82;35.38;;;;;;;;;;5039566;28;20289;-67
2022/12/17 16:39:38;;;;;;;72.20;35.53;;;;;;;;;;5039013;28;20204;-67
2022/12/17 16:42:04;;;;;;;68.85;33.45;;;;;;;;;;5039248;28;20220;-67
2022/12/17 16:44:31;;;;;;;74.68;37.00;;;;;;;;;;5039205;28;20352;-67
2022/12/17 16:46:57;;;;;;;76.60;35.58;;;;;;;;;;5039305;28;20205;-67
2022/12/17 16:49:24;;;;;;;68.53;34.28;;;;;;;;;;5038811;28;20198;-67
2022/12/17 16:51:52;;;;;;;72.38;35.55;;;;;;;;;;5039002;28;20219;-67
2022/12/17 16:54:19;;;;;;;76.72;35.35;;;;;;;;;;5039183;28;20221;-67
2022/12/17 16:56:45;;;;;;;70.00;35.28;;;;;;;;;;5039122;28;20201;-67
2022/12/17 16:59:12;;;;;;;76.70;38.08;;;;;;;;;;5038753;28;20198;-67
2022/12/17 17:01:39;;;;;;;85.15;40.15;;;;;;;;;;5039470;28;20242;-67
2022/12/17 17:04:05;;;;;;;74.10;35.88;;;;;;;;;;5038925;28;20318;-67
2022/12/17 17:06:32;;;;;;;72.72;35.47;;;;;;;;;;5039190;28;20509;-67
2022/12/17 17:09:02;;;;;;;76.13;37.95;;;;;;;;;;5038758;28;20202;-67
2022/12/17 17:11:28;;;;;;;76.20;37.83;;;;;;;;;;5039043;28;20201;-67
2022/12/17 17:13:55;;;;;;;81.50;39.33;;;;;;;;;;5038788;28;20493;-67
2022/12/17 17:16:23;;;;;;;77.30;36.72;;;;;;;;;;5038568;28;20563;-67
2022/12/17 17:18:50;;;;;;;72.78;35.88;;;;;;;;;;5038295;28;20201;-67
2022/12/17 17:21:22;;;;;;;76.18;36.13;;;;;;;;;;5038647;28;20403;-67
2022/12/17 17:23:49;;;;;;;84.25;38.83;;;;;;;;;;5042310;27;20198;-67
2022/12/17 17:26:17;;;;;;;74.95;35.63;;;;;;;;;;5042241;28;20209;-67
2022/12/17 17:28:44;;;;;;;80.70;37.58;;;;;;;;;;5041664;28;20341;-67
2022/12/17 17:31:12;;;;;;;79.45;37.17;;;;;;;;;;5041921;28;20220;-67
2022/12/17 17:33:39;;;;;;;82.10;38.85;;;;;;;;;;5041953;28;20202;-67
2022/12/17 17:36:06;;;;;;;75.65;37.13;;;;;;;;;;5041916;28;20412;-67
2022/12/17 17:38:33;;;;;;;72.53;37.45;;;;;;;;;;5041678;28;20198;-67
2022/12/17 17:40:59;;;;;;;75.60;37.13;;;;;;;;;;5041823;28;20205;-67
2022/12/17 17:43:27;;;;;;;68.60;35.35;;;;;;;;;;5041623;28;20532;-67
2022/12/17 17:45:54;;;;;;;72.32;35.42;;;;;;;;;;5041702;28;20216;-67
2022/12/17 17:48:20;;;;;;;67.82;35.15;;;;;;;;;;5041608;28;20197;-67
2022/12/17 17:50:56;;;;;;;71.47;35.15;;;;;;;;;;5042053;27;20209;-67
2022/12/17 17:53:22;;;;;;;74.97;36.20;;;;;;;;;;5041965;28;20497;-67
2022/12/17 17:55:48;;;;;;;75.07;36.15;;;;;;;;;;5041504;28;20452;-67
2022/12/17 17:58:15;;;;;;;73.40;36.97;;;;;;;;;;5041108;28;20210;-67
2022/12/17 18:00:42;;;;;;;71.57;36.55;;;;;;;;;;5042011;28;20189;-67
2022/12/17 18:03:09;;;;;;;68.82;34.08;;;;;;;;;;5041633;28;20198;-67
2022/12/17 18:05:36;;;;;;;65.75;35.05;;;;;;;;;;5041676;28;20239;-67
2022/12/17 18:08:03;;;;;;;74.80;36.22;;;;;;;;;;5041408;28;20249;-67
2022/12/17 18:10:29;;;;;;;85.00;39.08;;;;;;;;;;5041193;28;20209;-67
2022/12/17 18:15:40;;;;;;;74.25;36.25;;;;;;;;;;5041357;28;20228;-67
2022/12/17 18:18:07;;;;;;;81.63;38.75;;;;;;;;;;5041124;27;20389;-67
2022/12/17 18:20:33;;;;;;;75.53;35.90;;;;;;;;;;5041144;28;20531;-67
2022/12/17 18:23:00;;;;;;;73.90;35.75;;;;;;;;;;5041094;28;20205;-67
2022/12/17 18:25:26;;;;;;;75.70;37.20;;;;;;;;;;5041480;28;20209;-68
2022/12/17 18:27:52;;;;;;;74.28;35.50;;;;;;;;;;5041214;28;20229;-69
2022/12/17 18:30:19;;;;;;;80.85;36.10;;;;;;;;;;5041195;28;20204;-67
2022/12/17 18:32:48;;;;;;;77.25;36.92;;;;;;;;;;5041101;28;20501;-68
2022/12/17 18:35:16;;;;;;;72.05;36.28;;;;;;;;;;5040911;28;20407;-68
2022/12/17 18:37:42;;;;;;;75.47;37.42;;;;;;;;;;5040692;28;20285;-67
2022/12/17 18:40:09;;;;;;;76.38;37.30;;;;;;;;;;5040905;27;20268;-68
2022/12/17 18:45:19;;;;;;;74.85;36.45;;;;;;;;;;5040743;28;20192;-68
2022/12/17 18:47:46;;;;;;;79.97;36.38;;;;;;;;;;5040952;28;20204;-68
2022/12/17 18:50:12;;;;;;;76.18;37.85;;;;;;;;;;5040443;28;20558;-67
2022/12/17 18:52:40;;;;;;;73.32;36.70;;;;;;;;;;5041145;27;20387;-68
2022/12/17 18:55:10;;;;;;;77.43;37.63;;;;;;;;;;5040733;28;20225;-68
2022/12/17 18:57:36;;;;;;;78.78;37.65;;;;;;;;;;5040488;28;20290;-68
2022/12/17 19:00:02;;;;;;;75.10;37.05;;;;;;;;;;5040529;28;20206;-68
2022/12/17 19:02:29;;;;;;;82.35;38.15;;;;;;;;;;5041033;28;20520;-68
2022/12/17 19:04:55;;;;;;;82.60;39.20;;;;;;;;;;5040591;28;20208;-67
2022/12/17 19:07:21;;;;;;;83.32;36.83;;;;;;;;;;5040745;28;20197;-68
2022/12/17 19:09:49;;;;;;;78.93;38.17;;;;;;;;;;5040540;27;20190;-68
2022/12/17 19:12:15;;;;;;;84.20;38.63;;;;;;;;;;5040320;28;20197;-68
2022/12/17 19:14:42;;;;;;;83.78;37.75;;;;;;;;;;5040365;28;20259;-68
2022/12/17 19:17:09;;;;;;;87.53;38.17;;;;;;;;;;5040457;28;20519;-68
2022/12/17 19:19:35;;;;;;;85.88;39.60;;;;;;;;;;5040381;28;20243;-68
2022/12/17 19:22:02;;;;;;;86.22;41.67;;;;;;;;;;5040453;28;20191;-68
2022/12/17 19:24:28;;;;;;;93.57;41.40;;;;;;;;;;5040474;28;20205;-68
2022/12/17 19:26:56;;;;;;;81.90;38.90;;;;;;;;;;5040293;28;20201;-68
2022/12/17 19:29:22;;;;;;;80.07;37.65;;;;;;;;;;5039902;28;20218;-68
2022/12/17 19:31:49;;;;;;;79.75;38.63;;;;;;;;;;5040133;28;20200;-68
2022/12/17 19:34:16;;;;;;;80.85;39.15;;;;;;;;;;5040553;28;20363;-67
2022/12/17 19:36:42;;;;;;;76.60;36.28;;;;;;;;;;5040099;28;20218;-68
2022/12/17 19:39:11;;;;;;;77.72;36.80;;;;;;;;;;5039873;28;20212;-68
2022/12/17 19:41:38;;;;;;;76.32;36.58;;;;;;;;;;5039986;28;20200;-68
2022/12/17 19:44:06;;;;;;;71.75;36.25;;;;;;;;;;5040098;28;20198;-67
2022/12/17 19:46:34;;;;;;;80.30;37.88;;;;;;;;;;5039444;28;20228;-67
2022/12/17 19:49:00;;;;;;;76.13;37.13;;;;;;;;;;5040139;28;20205;-67
2022/12/17 19:51:27;;;;;;;78.10;38.15;;;;;;;;;;5039938;28;20205;-67
2022/12/17 19:53:54;;;;;;;83.20;37.67;;;;;;;;;;5039785;28;20498;-67
2022/12/17 19:56:22;;;;;;;76.88;38.15;;;;;;;;;;5039664;28;20244;-67
2022/12/17 19:58:51;;;;;;;78.10;36.25;;;;;;;;;;5039587;28;20205;-68
2022/12/17 20:01:19;;;;;;;82.75;37.15;;;;;;;;;;5039756;28;20198;-67
2022/12/17 20:03:46;;;;;;;79.47;37.75;;;;;;;;;;5039699;28;20206;-68
2022/12/17 20:06:14;;;;;;;80.22;37.92;;;;;;;;;;5039743;28;20198;-67
2022/12/17 20:08:40;;;;;;;77.63;37.22;;;;;;;;;;5039311;28;20205;-67
2022/12/17 20:11:31;;;;;;;77.43;36.40;;;;;;;;;;5039618;28;20198;-67
2022/12/17 20:13:54;;;;;;;74.97;34.92;;;;;;;;;;5039639;28;20193;-67
2022/12/17 20:16:22;;;;;;;79.50;35.33;;;;;;;;;;5039600;27;20415;-67
2022/12/17 20:18:48;;;;;;;79.50;37.60;;;;;;;;;;5039416;28;20202;-68
2022/12/17 20:21:14;;;;;;;84.72;37.55;;;;;;;;;;5039467;28;20509;-67
2022/12/17 20:23:41;;;;;;;74.45;37.13;;;;;;;;;;5039708;28;20426;-68
2022/12/17 20:26:08;;;;;;;80.70;37.75;;;;;;;;;;5039437;28;20202;-68
2022/12/17 20:28:34;;;;;;;79.95;36.40;;;;;;;;;;5039380;28;20301;-67
2022/12/17 20:31:01;;;;;;;79.43;37.22;;;;;;;;;;5039545;28;20202;-67
2022/12/17 20:33:29;;;;;;;85.38;39.63;;;;;;;;;;5039463;28;20520;-68
2022/12/17 20:35:56;;;;;;;85.40;38.65;;;;;;;;;;5039638;28;20217;-68
2022/12/17 20:38:22;;;;;;;86.28;39.85;;;;;;;;;;5039322;28;20242;-68
2022/12/17 20:40:48;;;;;;;79.85;38.03;;;;;;;;;;5039519;28;20210;-67
2022/12/17 20:43:15;;;;;;;82.35;37.88;;;;;;;;;;5039389;28;20206;-68
2022/12/17 20:45:47;;;;;;;102.40;40.38;;;;;;;;;;5039362;28;20393;-67
2022/12/17 20:48:13;;;;;;;78.18;37.58;;;;;;;;;;5038866;28;20289;-68
2022/12/17 20:50:41;;;;;;;89.10;39.72;;;;;;;;;;5039398;28;20283;-67
2022/12/17 20:53:07;;;;;;;85.57;39.08;;;;;;;;;;5039041;28;20411;-67
2022/12/17 20:55:33;;;;;;;82.75;38.50;;;;;;;;;;5039059;28;20230;-67
2022/12/17 20:57:59;;;;;;;93.25;40.42;;;;;;;;;;5041547;28;20515;-68
2022/12/17 21:00:26;;;;;;;87.78;39.42;;;;;;;;;;5042540;28;20205;-69
2022/12/17 21:02:52;;;;;;;91.90;39.85;;;;;;;;;;5042401;28;20198;-68
2022/12/17 21:05:18;;;;;;;86.60;39.30;;;;;;;;;;5042665;28;20519;-67
2022/12/17 21:07:46;;;;;;;81.97;37.55;;;;;;;;;;5042527;27;20198;-67
2022/12/17 21:10:13;;;;;;;85.18;38.22;;;;;;;;;;5042377;28;20210;-67
2022/12/17 21:15:23;;;;;;;81.10;38.13;;;;;;;;;;5042116;28;20243;-68
2022/12/17 21:17:49;;;;;;;84.88;37.05;;;;;;;;;;5042359;28;20442;-67
2022/12/17 21:20:15;;;;;;;77.93;36.78;;;;;;;;;;5041933;28;20205;-68
2022/12/17 21:22:42;;;;;;;81.25;37.25;;;;;;;;;;5042251;28;20237;-67
2022/12/17 21:25:10;;;;;;;82.35;37.80;;;;;;;;;;5042436;28;20412;-67
2022/12/17 21:27:36;;;;;;;78.57;37.25;;;;;;;;;;5042397;28;20225;-68
2022/12/17 21:30:02;;;;;;;81.43;38.17;;;;;;;;;;5041982;27;20204;-68
2022/12/17 21:32:28;;;;;;;78.55;37.42;;;;;;;;;;5041748;28;20389;-67
2022/12/17 21:34:55;;;;;;;95.97;39.65;;;;;;;;;;5042177;27;20210;-67
2022/12/17 21:37:21;;;;;;;83.32;37.92;;;;;;;;;;5042080;28;20214;-67
2022/12/17 21:39:47;;;;;;;92.40;38.80;;;;;;;;;;5041691;28;20198;-67
2022/12/17 21:44:59;;;;;;;96.85;39.88;;;;;;;;;;5041728;28;20239;-67
2022/12/17 21:47:25;;;;;;;93.82;38.92;;;;;;;;;;5024683;28;20207;-67
2022/12/17 21:49:52;;;;;;;84.57;38.20;;;;;;;;;;5035418;28;20561;-68
2022/12/17 21:52:18;;;;;;;88.32;38.65;;;;;;;;;;5036466;28;20208;-68
2022/12/17 21:54:44;;;;;;;90.65;39.47;;;;;;;;;;5036310;28;20233;-67
2022/12/17 21:57:10;;;;;;;92.15;39.38;;;;;;;;;;5035891;28;20631;-67
2022/12/17 21:59:38;;;;;;;83.22;38.15;;;;;;;;;;5035356;28;20213;-67
2022/12/17 22:02:04;;;;;;;80.85;38.28;;;;;;;;;;5035925;28;20548;-67
2022/12/17 22:04:31;;;;;;;87.63;38.45;;;;;;;;;;5036095;28;20209;-67
2022/12/17 22:06:57;;;;;;;89.60;38.95;;;;;;;;;;5023048;28;20230;-67
2022/12/17 22:09:23;;;;;;;83.10;38.83;;;;;;;;;;5035038;28;20214;-67
2022/12/17 22:14:01;;;;;;;88.82;40.22;;;;;;;;;;5036159;28;20290;-68
2022/12/17 22:14:35;;;;;;;94.03;39.85;;;;;;;;;;5036046;28;20206;-68
2022/12/17 22:17:02;;;;;;;88.10;40.28;;;;;;;;;;5035645;28;20435;-68
2022/12/17 22:19:29;;;;;;;94.13;38.60;;;;;;;;;;5034611;28;20224;-68
2022/12/17 22:21:55;;;;;;;83.18;38.60;;;;;;;;;;5033490;28;20221;-68
2022/12/17 22:24:23;;;;;;;89.50;39.55;;;;;;;;;;5022032;28;20210;-68
2022/12/17 22:26:49;;;;;;;79.03;35.85;;;;;;;;;;5029548;28;20285;-68
2022/12/17 22:32:58;;;;;;;82.93;37.78;;;;;;;;;;5035357;28;20244;-68
2022/12/17 22:34:47;;;;;;;85.03;36.85;;;;;;;;;;5035672;28;20216;-68
2022/12/17 22:37:14;;;;;;;77.10;37.47;;;;;;;;;;5035592;28;20579;-68
2022/12/17 22:39:40;;;;;;;90.50;38.38;;;;;;;;;;5036080;28;20210;-68
2022/12/17 22:44:50;;;;;;;81.93;36.75;;;;;;;;;;5035105;28;20258;-68
2022/12/17 22:47:18;;;;;;;77.15;37.15;;;;;;;;;;5035461;28;20210;-68
2022/12/17 22:49:44;;;;;;;84.20;36.75;;;;;;;;;;5035507;28;20237;-68
2022/12/17 22:52:10;;;;;;;76.55;36.28;;;;;;;;;;5035202;28;20209;-67
2022/12/17 22:54:37;;;;;;;80.70;37.08;;;;;;;;;;5035303;28;20216;-68
2022/12/17 22:57:03;;;;;;;79.97;36.63;;;;;;;;;;5035121;28;20420;-68
2022/12/17 22:59:29;;;;;;;73.70;36.05;;;;;;;;;;5034906;28;20226;-68
2022/12/17 23:01:56;;;;;;;73.60;35.08;;;;;;;;;;5034905;28;20517;-67
2022/12/17 23:04:23;;;;;;;72.82;34.70;;;;;;;;;;5034675;28;20210;-68
2022/12/17 23:06:49;;;;;;;72.15;34.92;;;;;;;;;;5035133;28;20206;-69
2022/12/17 23:09:17;;;;;;;72.55;35.63;;;;;;;;;;5035016;28;20210;-68
2022/12/17 23:11:44;;;;;;;74.10;36.35;;;;;;;;;;5035237;28;20217;-68
2022/12/17 23:14:11;;;;;;;79.60;35.72;;;;;;;;;;5034299;28;20437;-68
2022/12/17 23:16:37;;;;;;;72.22;35.13;;;;;;;;;;5034778;28;20552;-68
2022/12/17 23:19:04;;;;;;;78.05;36.78;;;;;;;;;;5033722;28;20218;-67
2022/12/17 23:21:31;;;;;;;77.93;37.05;;;;;;;;;;5014430;28;20218;-67
2022/12/17 23:23:58;;;;;;;82.65;36.33;;;;;;;;;;5014274;28;20211;-67
2022/12/17 23:26:25;;;;;;;81.05;36.25;;;;;;;;;;5014574;28;20207;-67
2022/12/17 23:28:52;;;;;;;91.22;41.10;;;;;;;;;;5014443;28;20561;-68
2022/12/17 23:31:20;;;;;;;88.50;40.05;;;;;;;;;;5015323;28;20218;-68
2022/12/17 23:33:46;;;;;;;89.68;38.47;;;;;;;;;;5014731;28;20282;-68
2022/12/17 23:36:13;;;;;;;90.65;38.08;;;;;;;;;;5014804;28;20237;-68
2022/12/17 23:38:41;;;;;;;92.97;40.80;;;;;;;;;;5018177;28;20202;-68
2022/12/17 23:41:08;;;;;;;87.80;39.97;;;;;;;;;;5020166;28;20207;-68
2022/12/17 23:43:35;;;;;;;89.63;37.97;;;;;;;;;;5020000;28;20199;-68
2022/12/17 23:46:02;;;;;;;80.28;37.92;;;;;;;;;;5032785;28;20209;-68
2022/12/17 23:48:29;;;;;;;79.65;36.53;;;;;;;;;;5039548;28;20202;-68
2022/12/17 23:50:55;;;;;;;77.60;37.00;;;;;;;;;;5039705;28;20198;-68
2022/12/17 23:53:22;;;;;;;80.65;37.80;;;;;;;;;;5039705;28;20197;-68
2022/12/17 23:55:49;;;;;;;88.07;37.45;;;;;;;;;;5039771;28;20204;-67
2022/12/17 23:58:16;;;;;;;81.97;36.58;;;;;;;;;;5039358;28;20558;-68
